Terminal Aerodrome Forecast
Issued by NWS Duluth, MN

Home | Current Version | Previous Version | Text Only | Print | Product List | Glossary On
Versions: 1 2 3 4 5 6 7 8 9 10 11 12 13 14 15 16 17 18 19 20 21 22 23 24 25 26 27 28 29 30
784
FTUS43 KDLH 162335
TAFDLH
TAF
KDLH 162335Z 1700/1724 12011KT P6SM OVC011
      TEMPO 1703/1705 2SM -SHSN OVC008
     FM171300 18009KT 5SM -SN OVC008
     FM171500 19007KT 4SM -RASN OVC008
     FM171700 21007KT 2SM -RASN OVC004
     FM171900 22006KT 3SM -DZSN OVC004=

USA.gov is the U.S. government's official web portal to all federal, state and local government web resources and services.